createdAt,value
2023-07-08T00:00:54.685Z,16.17
2023-07-08T00:03:21.838Z,16.07
2023-07-08T00:05:54.284Z,15.96
2023-07-08T00:08:22.254Z,15.75
2023-07-08T00:10:49.330Z,15.83
2023-07-08T00:13:16.552Z,15.55
2023-07-08T00:15:43.672Z,15.80
2023-07-08T00:18:16.278Z,15.70
2023-07-08T00:20:48.926Z,15.40
2023-07-08T00:23:16.183Z,15.46
2023-07-08T00:25:44.074Z,15.41
2023-07-08T00:28:20.634Z,15.42
2023-07-08T00:30:49.403Z,15.41
2023-07-08T00:33:18.052Z,15.14
2023-07-08T00:35:46.597Z,15.32
2023-07-08T00:38:16.751Z,15.35
2023-07-08T00:40:52.804Z,15.11
2023-07-08T00:43:30.426Z,15.19
2023-07-08T00:46:14.685Z,15.10
2023-07-08T00:48:42.817Z,14.96
2023-07-08T00:51:13.386Z,15.10
2023-07-08T00:53:40.549Z,14.98
2023-07-08T00:56:14.368Z,15.00
2023-07-08T00:58:50.281Z,14.92
2023-07-08T01:01:18.328Z,15.02
2023-07-08T01:03:56.869Z,15.01
2023-07-08T01:06:32.274Z,14.93
2023-07-08T01:09:05.989Z,14.94
2023-07-08T01:11:35.153Z,14.83
2023-07-08T01:14:05.661Z,14.85
2023-07-08T01:16:34.988Z,14.67
2023-07-08T01:19:05.407Z,14.80
2023-07-08T01:21:32.594Z,14.95
2023-07-08T01:24:02.574Z,14.89
2023-07-08T01:26:31.361Z,14.77
2023-07-08T01:28:59.090Z,14.90
2023-07-08T01:31:26.340Z,14.71
2023-07-08T01:33:54.555Z,14.76
2023-07-08T01:36:26.114Z,14.52
2023-07-08T01:38:53.589Z,14.48
2023-07-08T01:41:20.701Z,14.31
2023-07-08T01:43:47.844Z,14.43
2023-07-08T01:46:23.019Z,14.40
2023-07-08T01:48:55.566Z,14.42
2023-07-08T01:51:23.566Z,14.42
2023-07-08T01:53:50.784Z,14.29
2023-07-08T01:56:18.298Z,14.29
2023-07-08T01:58:45.450Z,14.21
2023-07-08T02:01:12.540Z,14.21
2023-07-08T02:03:40.077Z,14.28
2023-07-08T02:06:09.207Z,13.84
2023-07-08T02:08:36.285Z,14.20
2023-07-08T02:11:03.583Z,14.10
2023-07-08T02:13:31.096Z,14.21
2023-07-08T02:15:58.186Z,14.08
2023-07-08T02:18:26.370Z,14.15
2023-07-08T02:20:53.730Z,14.10
2023-07-08T02:23:21.124Z,14.18
2023-07-08T02:25:55.704Z,13.81
2023-07-08T02:28:23.517Z,14.12
2023-07-08T02:30:50.564Z,13.96
2023-07-08T02:33:20.592Z,13.66
2023-07-08T02:35:47.652Z,13.98
2023-07-08T02:38:14.669Z,14.00
2023-07-08T02:40:41.872Z,13.89
2023-07-08T02:43:09.210Z,13.92
2023-07-08T02:45:37.441Z,13.71
2023-07-08T02:48:05.099Z,13.44
2023-07-08T02:50:32.969Z,13.97
2023-07-08T02:53:00.137Z,13.93
2023-07-08T02:55:27.170Z,13.89
2023-07-08T02:57:54.202Z,13.87
2023-07-08T03:00:21.360Z,13.89
2023-07-08T03:02:48.416Z,13.92
2023-07-08T03:05:15.622Z,13.84
2023-07-08T03:07:42.674Z,13.80
2023-07-08T03:10:10.385Z,13.78
2023-07-08T03:12:37.485Z,13.80
2023-07-08T03:15:05.963Z,13.80
2023-07-08T03:17:33.070Z,13.71
2023-07-08T03:20:00.163Z,13.77
2023-07-08T03:22:27.291Z,13.69
2023-07-08T03:24:54.429Z,13.20
2023-07-08T03:27:22.736Z,13.71
2023-07-08T03:29:51.561Z,13.71
2023-07-08T03:32:18.728Z,13.67
2023-07-08T03:34:46.071Z,13.55
2023-07-08T03:37:14.518Z,13.47
2023-07-08T03:39:41.608Z,13.24
2023-07-08T03:42:09.181Z,13.57
2023-07-08T03:44:36.284Z,13.60
2023-07-08T03:47:03.536Z,13.48
2023-07-08T03:49:30.803Z,13.09
2023-07-08T03:51:57.934Z,13.51
2023-07-08T03:54:26.416Z,13.49
2023-07-08T03:56:56.918Z,13.64
2023-07-08T03:59:26.511Z,13.75
2023-07-08T04:01:56.019Z,13.69
2023-07-08T04:04:25.493Z,13.77
2023-07-08T04:06:52.737Z,13.82
2023-07-08T04:09:19.872Z,13.89
2023-07-08T04:11:47.112Z,14.00
2023-07-08T04:14:14.550Z,14.03
2023-07-08T04:16:53.264Z,13.94
2023-07-08T04:19:20.632Z,13.88
2023-07-08T04:21:47.820Z,14.09
2023-07-08T04:24:17.434Z,13.74
2023-07-08T04:26:47.294Z,14.14
2023-07-08T04:29:17.205Z,14.31
2023-07-08T04:31:44.407Z,14.31
2023-07-08T04:34:11.474Z,14.30
2023-07-08T04:36:38.843Z,14.17
2023-07-08T04:39:08.209Z,14.05
2023-07-08T04:41:41.529Z,14.54
2023-07-08T04:44:09.445Z,14.53
2023-07-08T04:46:40.698Z,14.25
2023-07-08T04:49:10.605Z,14.36
2023-07-08T04:51:39.011Z,14.20
2023-07-08T04:54:06.458Z,14.47
2023-07-08T04:56:42.348Z,14.64
2023-07-08T04:59:11.195Z,14.41
2023-07-08T05:01:39.164Z,14.69
2023-07-08T05:04:07.652Z,14.70
2023-07-08T05:06:35.323Z,14.49
2023-07-08T05:09:03.999Z,14.73
2023-07-08T05:11:32.191Z,14.89
2023-07-08T05:14:00.021Z,15.00
2023-07-08T05:16:27.221Z,15.23
2023-07-08T05:18:54.417Z,14.94
2023-07-08T05:21:21.724Z,15.40
2023-07-08T05:23:52.492Z,15.44
2023-07-08T05:26:19.601Z,15.63
2023-07-08T05:28:47.007Z,15.73
2023-07-08T05:31:14.161Z,15.98
2023-07-08T05:33:41.224Z,16.13
2023-07-08T05:36:08.498Z,16.31
2023-07-08T05:38:35.620Z,16.45
2023-07-08T05:41:03.017Z,16.74
2023-07-08T05:43:30.409Z,16.78
2023-07-08T05:46:12.434Z,16.96
2023-07-08T05:48:40.631Z,17.21
2023-07-08T05:51:07.910Z,17.19
2023-07-08T05:53:34.952Z,17.35
2023-07-08T05:56:03.940Z,17.52
2023-07-08T05:58:31.051Z,17.64
2023-07-08T06:00:59.612Z,17.88
2023-07-08T06:03:27.283Z,18.03
2023-07-08T06:05:54.425Z,18.11
2023-07-08T06:08:21.531Z,18.30
2023-07-08T06:10:49.180Z,18.36
2023-07-08T06:13:16.313Z,18.56
2023-07-08T06:15:43.568Z,18.86
2023-07-08T06:18:10.720Z,18.84
2023-07-08T06:20:37.865Z,18.66
2023-07-08T06:23:04.986Z,19.00
2023-07-08T06:25:33.421Z,18.71
2023-07-08T06:28:00.637Z,19.08
2023-07-08T06:30:27.742Z,19.23
2023-07-08T06:32:55.124Z,19.48
2023-07-08T06:35:22.321Z,19.46
2023-07-08T06:37:49.487Z,20.00
2023-07-08T06:40:18.435Z,20.26
2023-07-08T06:42:45.535Z,20.23
2023-07-08T06:45:31.264Z,20.53
2023-07-08T06:47:58.417Z,20.69
2023-07-08T06:50:25.548Z,20.73
2023-07-08T06:52:52.629Z,21.03
2023-07-08T06:55:19.880Z,21.46
2023-07-08T06:57:46.903Z,21.71
2023-07-08T07:00:14.198Z,21.84
2023-07-08T07:02:41.368Z,21.71
2023-07-08T07:05:08.856Z,22.24
2023-07-08T07:07:36.082Z,22.26
2023-07-08T07:10:04.335Z,22.39
2023-07-08T07:12:31.509Z,22.10
2023-07-08T07:14:58.618Z,22.05
2023-07-08T07:17:26.994Z,22.13
2023-07-08T07:19:57.280Z,21.92
2023-07-08T07:22:24.805Z,22.35
2023-07-08T07:24:51.943Z,22.47
2023-07-08T07:27:19.268Z,22.63
2023-07-08T07:29:50.955Z,22.32
2023-07-08T07:32:19.763Z,22.75
2023-07-08T07:34:50.406Z,22.74
2023-07-08T07:37:19.526Z,22.80
2023-07-08T07:39:46.782Z,22.81
2023-07-08T07:42:17.398Z,22.87
2023-07-08T07:44:45.604Z,22.99
2023-07-08T07:47:13.408Z,23.08
2023-07-08T07:49:41.052Z,22.98
2023-07-08T07:52:08.515Z,23.16
2023-07-08T07:54:35.880Z,22.87
2023-07-08T07:57:03.067Z,23.18
2023-07-08T07:59:30.606Z,23.28
2023-07-08T08:01:57.822Z,23.33
2023-07-08T08:04:24.893Z,23.46
2023-07-08T08:06:51.982Z,23.63
2023-07-08T08:09:19.126Z,23.44
2023-07-08T08:11:46.188Z,23.81
2023-07-08T08:14:14.349Z,23.95
2023-07-08T08:16:41.497Z,23.99
2023-07-08T08:19:09.210Z,23.97
2023-07-08T08:21:36.746Z,24.01
2023-07-08T08:24:04.067Z,24.22
2023-07-08T08:26:31.276Z,23.97
2023-07-08T08:28:58.713Z,23.96
2023-07-08T08:31:25.888Z,24.24
2023-07-08T08:33:53.583Z,24.24
2023-07-08T08:36:21.860Z,23.84
2023-07-08T08:38:49.011Z,24.23
2023-07-08T08:41:19.991Z,24.42
2023-07-08T08:43:49.186Z,24.72
2023-07-08T08:46:19.266Z,24.91
2023-07-08T08:48:55.364Z,25.24
2023-07-08T08:51:24.545Z,25.66
2023-07-08T08:53:56.960Z,25.90
2023-07-08T08:56:26.274Z,26.15
2023-07-08T08:59:09.089Z,26.10
2023-07-08T09:01:38.100Z,25.84
2023-07-08T09:04:20.633Z,26.18
2023-07-08T09:06:48.028Z,26.07
2023-07-08T09:09:29.945Z,25.69
2023-07-08T09:12:12.798Z,25.39
2023-07-08T09:14:39.873Z,25.55
2023-07-08T09:17:31.616Z,25.60
2023-07-08T09:20:04.632Z,25.77
2023-07-08T09:22:44.845Z,25.67
2023-07-08T09:25:36.814Z,25.92
2023-07-08T09:28:04.097Z,25.91
2023-07-08T09:30:31.794Z,25.97
2023-07-08T09:33:03.050Z,25.93
2023-07-08T09:35:41.723Z,26.03
2023-07-08T09:38:10.460Z,26.07
2023-07-08T09:40:37.524Z,26.41
2023-07-08T09:43:50.251Z,26.44
2023-07-08T09:46:17.603Z,26.49
2023-07-08T09:48:44.728Z,26.49
2023-07-08T09:51:11.803Z,26.47
2023-07-08T09:53:38.965Z,26.70
2023-07-08T09:56:09.549Z,26.99
2023-07-08T09:58:43.157Z,27.00
2023-07-08T10:01:13.943Z,27.06
2023-07-08T10:03:43.037Z,27.02
2023-07-08T10:06:31.842Z,27.15
2023-07-08T10:09:04.006Z,27.19
2023-07-08T10:11:35.852Z,27.02
2023-07-08T10:14:13.791Z,27.16
2023-07-08T10:16:42.040Z,27.19
2023-07-08T10:19:18.298Z,27.50
2023-07-08T10:21:54.679Z,27.45
2023-07-08T10:24:39.864Z,27.42
2023-07-08T10:27:23.226Z,27.39
2023-07-08T10:30:13.295Z,27.55
2023-07-08T10:32:55.501Z,27.30
2023-07-08T10:35:33.312Z,27.65
2023-07-08T10:38:23.564Z,27.65
2023-07-08T10:40:58.221Z,27.75
2023-07-08T10:44:00.531Z,27.63
2023-07-08T10:46:39.613Z,27.88
2023-07-08T10:49:26.059Z,27.90
2023-07-08T10:52:20.788Z,27.98
2023-07-08T10:55:09.781Z,28.08
2023-07-08T10:57:39.984Z,28.19
2023-07-08T11:00:32.975Z,28.21
2023-07-08T11:03:41.669Z,28.46
2023-07-08T11:06:27.660Z,28.44
2023-07-08T11:09:00.660Z,28.42
2023-07-08T11:11:34.882Z,28.30
2023-07-08T11:14:17.181Z,28.24
2023-07-08T11:17:01.193Z,28.33
2023-07-08T11:19:37.473Z,28.03
2023-07-08T11:22:10.556Z,28.12
2023-07-08T11:24:49.272Z,28.02
2023-07-08T11:27:44.142Z,28.36
2023-07-08T11:30:17.590Z,28.21
2023-07-08T11:32:48.287Z,28.28
2023-07-08T11:35:24.341Z,28.36
2023-07-08T11:37:58.356Z,28.39
2023-07-08T11:40:25.752Z,28.46
2023-07-08T11:43:01.095Z,28.03
2023-07-08T11:45:34.395Z,28.50
2023-07-08T11:48:06.457Z,28.48
2023-07-08T11:50:37.862Z,28.63
2023-07-08T11:53:09.470Z,28.60
2023-07-08T11:55:43.875Z,28.67
2023-07-08T11:58:29.498Z,28.47
2023-07-08T12:01:01.187Z,28.68
2023-07-08T12:03:35.621Z,28.68
2023-07-08T12:06:07.348Z,28.73
2023-07-08T12:08:39.178Z,28.86
2023-07-08T12:11:13.626Z,28.67
2023-07-08T12:13:40.847Z,28.89
2023-07-08T12:16:17.014Z,29.06
2023-07-08T12:18:46.878Z,29.07
2023-07-08T12:21:14.566Z,28.64
2023-07-08T12:23:48.627Z,28.87
2023-07-08T12:26:17.077Z,29.14
2023-07-08T12:28:44.554Z,29.19
2023-07-08T12:31:17.685Z,29.38
2023-07-08T12:33:45.356Z,29.27
2023-07-08T12:36:26.762Z,29.26
2023-07-08T12:38:56.702Z,29.37
2023-07-08T12:41:37.293Z,29.23
2023-07-08T12:44:16.292Z,29.39
2023-07-08T12:46:43.369Z,29.52
2023-07-08T12:49:10.618Z,29.22
2023-07-08T12:51:37.714Z,29.48
2023-07-08T12:54:04.874Z,29.37
2023-07-08T12:56:32.115Z,29.47
2023-07-08T12:59:00.624Z,29.54
2023-07-08T13:01:30.990Z,29.38
2023-07-08T13:04:04.626Z,29.40
2023-07-08T13:06:34.994Z,29.82
2023-07-08T13:09:24.979Z,29.95
2023-07-08T13:11:54.658Z,29.93
2023-07-08T13:14:23.433Z,29.57
2023-07-08T13:16:50.786Z,29.76
2023-07-08T13:19:20.502Z,29.46
2023-07-08T13:21:51.716Z,29.98
2023-07-08T13:24:20.461Z,29.81
2023-07-08T13:26:49.890Z,29.88
2023-07-08T13:29:19.610Z,29.60
2023-07-08T13:31:53.865Z,29.83
2023-07-08T13:34:33.409Z,30.57
2023-07-08T13:37:00.720Z,30.55
2023-07-08T13:39:36.005Z,30.78
2023-07-08T13:42:28.121Z,30.76
2023-07-08T13:44:55.262Z,30.48
2023-07-08T13:47:24.072Z,30.98
2023-07-08T13:49:58.238Z,30.79
2023-07-08T13:52:25.318Z,31.08
2023-07-08T13:54:55.579Z,30.71
2023-07-08T13:57:29.269Z,31.14
2023-07-08T13:59:56.378Z,31.22
2023-07-08T14:02:27.428Z,31.00
2023-07-08T14:04:56.046Z,30.82
2023-07-08T14:07:26.264Z,31.03
2023-07-08T14:09:53.693Z,30.97
2023-07-08T14:12:24.352Z,31.26
2023-07-08T14:14:51.720Z,31.02
2023-07-08T14:17:28.882Z,31.04
2023-07-08T14:19:56.011Z,31.48
2023-07-08T14:22:26.616Z,31.61
2023-07-08T14:24:55.031Z,31.71
2023-07-08T14:27:22.625Z,31.24
2023-07-08T14:29:51.874Z,31.50
2023-07-08T14:32:31.236Z,31.50
2023-07-08T14:35:09.921Z,31.49
2023-07-08T14:37:37.019Z,31.27
2023-07-08T14:40:17.478Z,31.38
2023-07-08T14:42:44.520Z,30.72
2023-07-08T14:45:11.985Z,30.34
2023-07-08T14:47:39.056Z,30.67
2023-07-08T14:50:15.068Z,30.79
2023-07-08T14:52:42.209Z,30.17
2023-07-08T14:55:10.987Z,30.85
2023-07-08T14:57:57.375Z,31.26
2023-07-08T15:00:24.872Z,31.45
2023-07-08T15:02:53.115Z,31.15
2023-07-08T15:05:25.958Z,31.47
2023-07-08T15:07:54.984Z,30.92
2023-07-08T15:10:24.840Z,31.04
2023-07-08T15:12:52.115Z,30.99
2023-07-08T15:15:27.550Z,31.20
2023-07-08T15:17:54.997Z,32.58
2023-07-08T15:20:23.354Z,33.37
2023-07-08T15:22:51.140Z,33.31
2023-07-08T15:25:19.294Z,33.83
2023-07-08T15:27:53.433Z,34.08
2023-07-08T15:30:23.657Z,35.09
2023-07-08T15:32:52.318Z,35.57
2023-07-08T15:35:31.349Z,35.84
2023-07-08T15:38:00.212Z,34.93
2023-07-08T15:40:30.186Z,34.40
2023-07-08T15:43:00.649Z,35.29
2023-07-08T15:45:31.473Z,35.95
2023-07-08T15:47:58.571Z,36.50
2023-07-08T15:50:27.891Z,36.07
2023-07-08T15:52:55.917Z,36.04
2023-07-08T15:55:34.807Z,35.94
2023-07-08T15:58:15.257Z,36.15
2023-07-08T16:00:42.738Z,36.12
2023-07-08T16:03:22.911Z,35.77
2023-07-08T16:05:51.300Z,35.42
2023-07-08T16:08:18.853Z,34.56
2023-07-08T16:10:51.018Z,33.28
2023-07-08T16:13:22.809Z,33.20
2023-07-08T16:15:50.388Z,33.51
2023-07-08T16:18:17.809Z,34.70
2023-07-08T16:20:46.090Z,35.66
2023-07-08T16:23:13.235Z,35.30
2023-07-08T16:25:44.632Z,35.03
2023-07-08T16:28:41.243Z,34.55
2023-07-08T16:31:17.494Z,33.99
2023-07-08T16:33:45.827Z,33.79
2023-07-08T16:36:15.044Z,32.97
2023-07-08T16:38:42.545Z,33.74
2023-07-08T16:41:14.696Z,34.62
2023-07-08T16:43:41.900Z,34.49
2023-07-08T16:46:13.369Z,33.50
2023-07-08T16:48:41.183Z,33.70
2023-07-08T16:51:16.614Z,35.06
2023-07-08T16:53:44.917Z,36.33
2023-07-08T16:56:13.728Z,37.81
2023-07-08T16:58:40.917Z,38.66
2023-07-08T17:01:20.917Z,39.91
2023-07-08T17:03:50.017Z,40.17
2023-07-08T17:06:17.794Z,41.03
2023-07-08T17:08:44.887Z,40.01
2023-07-08T17:11:12.394Z,40.47
2023-07-08T17:13:39.690Z,40.55
2023-07-08T17:16:13.279Z,40.61
2023-07-08T17:18:40.690Z,40.20
2023-07-08T17:21:14.712Z,39.68
2023-07-08T17:23:42.149Z,39.24
2023-07-08T17:26:09.785Z,37.20
2023-07-08T17:28:37.101Z,35.52
2023-07-08T17:31:05.732Z,35.19
2023-07-08T17:33:33.162Z,34.38
2023-07-08T17:36:01.207Z,33.28
2023-07-08T17:38:47.956Z,32.17
2023-07-08T17:41:18.999Z,31.45
2023-07-08T17:43:47.726Z,30.86
2023-07-08T17:46:20.556Z,30.52
2023-07-08T17:48:49.016Z,30.02
2023-07-08T17:51:17.942Z,29.67
2023-07-08T17:53:45.420Z,29.33
2023-07-08T17:56:20.120Z,29.08
2023-07-08T17:58:50.321Z,28.78
2023-07-08T18:01:17.798Z,28.28
2023-07-08T18:03:45.027Z,28.46
2023-07-08T18:06:12.146Z,28.24
2023-07-08T18:08:39.315Z,28.09
2023-07-08T18:11:12.853Z,28.07
2023-07-08T18:13:40.496Z,27.85
2023-07-08T18:16:15.761Z,27.40
2023-07-08T18:18:43.367Z,27.35
2023-07-08T18:21:16.303Z,27.39
2023-07-08T18:23:44.034Z,27.23
2023-07-08T18:26:21.465Z,27.00
2023-07-08T18:28:49.102Z,26.78
2023-07-08T18:31:21.098Z,26.98
2023-07-08T18:33:51.796Z,26.83
2023-07-08T18:36:18.915Z,26.73
2023-07-08T18:38:46.068Z,26.38
2023-07-08T18:41:20.615Z,26.54
2023-07-08T18:43:47.995Z,26.28
2023-07-08T18:46:16.209Z,26.38
2023-07-08T18:48:43.996Z,26.00
2023-07-08T18:51:38.581Z,26.10
2023-07-08T18:54:18.935Z,26.17
2023-07-08T18:56:55.116Z,26.11
2023-07-08T18:59:24.860Z,26.08
2023-07-08T19:01:59.373Z,26.01
2023-07-08T19:04:29.876Z,25.80
2023-07-08T19:06:58.607Z,26.12
2023-07-08T19:09:26.135Z,25.93
2023-07-08T19:11:53.472Z,25.62
2023-07-08T19:14:20.677Z,25.87
2023-07-08T19:16:47.923Z,26.02
2023-07-08T19:19:15.099Z,25.72
2023-07-08T19:21:42.676Z,25.34
2023-07-08T19:24:21.223Z,25.53
2023-07-08T19:26:55.583Z,25.28
2023-07-08T19:29:22.671Z,25.38
2023-07-08T19:31:50.148Z,25.41
2023-07-08T19:34:17.956Z,25.39
2023-07-08T19:36:45.352Z,25.18
2023-07-08T19:39:12.591Z,24.57
2023-07-08T19:41:41.738Z,24.92
2023-07-08T19:44:13.329Z,24.59
2023-07-08T19:46:41.678Z,24.64
2023-07-08T19:49:10.697Z,24.71
2023-07-08T19:51:37.817Z,24.32
2023-07-08T19:54:05.270Z,24.58
2023-07-08T19:56:32.664Z,23.99
2023-07-08T19:59:01.663Z,24.02
2023-07-08T20:01:28.693Z,24.09
2023-07-08T20:03:55.928Z,24.12
2023-07-08T20:06:27.349Z,23.93
2023-07-08T20:08:56.067Z,23.93
2023-07-08T20:11:23.639Z,23.57
2023-07-08T20:13:50.827Z,23.83
2023-07-08T20:16:26.012Z,23.64
2023-07-08T20:18:53.413Z,23.45
2023-07-08T20:21:20.867Z,23.79
2023-07-08T20:23:48.003Z,23.75
2023-07-08T20:26:21.015Z,23.76
2023-07-08T20:28:48.077Z,23.74
2023-07-08T20:31:15.175Z,23.62
2023-07-08T20:33:42.222Z,23.56
2023-07-08T20:36:21.121Z,23.57
2023-07-08T20:38:48.270Z,23.48
2023-07-08T20:41:16.532Z,23.43
2023-07-08T20:43:43.759Z,23.03
2023-07-08T20:46:21.902Z,23.33
2023-07-08T20:48:51.445Z,23.15
2023-07-08T20:51:18.541Z,23.29
2023-07-08T20:53:45.628Z,23.16
2023-07-08T20:56:18.063Z,23.04
2023-07-08T20:58:45.372Z,22.97
2023-07-08T21:01:12.383Z,22.72
2023-07-08T21:03:42.559Z,22.78
2023-07-08T21:06:15.938Z,22.68
2023-07-08T21:08:42.989Z,22.58
2023-07-08T21:11:11.821Z,22.11
2023-07-08T21:13:39.272Z,22.23
2023-07-08T21:16:13.552Z,22.22
2023-07-08T21:18:40.808Z,21.97
2023-07-08T21:21:09.551Z,21.92
2023-07-08T21:23:37.043Z,21.89
2023-07-08T21:26:16.121Z,21.73
2023-07-08T21:28:46.617Z,21.50
2023-07-08T21:31:14.751Z,21.70
2023-07-08T21:33:42.252Z,21.65
2023-07-08T21:36:27.610Z,21.64
2023-07-08T21:38:58.829Z,21.57
2023-07-08T21:41:25.894Z,21.48
2023-07-08T21:43:53.063Z,21.32
2023-07-08T21:46:22.030Z,21.26
2023-07-08T21:48:49.929Z,21.16
2023-07-08T21:51:28.630Z,21.18
2023-07-08T21:53:56.474Z,20.83
2023-07-08T21:56:23.899Z,21.04
2023-07-08T21:58:51.028Z,20.99
2023-07-08T22:01:20.663Z,21.06
2023-07-08T22:03:48.610Z,21.01
2023-07-08T22:06:20.736Z,20.77
2023-07-08T22:08:47.949Z,20.85
2023-07-08T22:11:36.459Z,20.93
2023-07-08T22:14:04.683Z,20.37
2023-07-08T22:16:33.543Z,20.64
2023-07-08T22:19:02.980Z,20.61
2023-07-08T22:21:33.760Z,20.46
2023-07-08T22:24:06.217Z,20.53
2023-07-08T22:26:36.066Z,20.43
2023-07-08T22:29:04.160Z,20.10
2023-07-08T22:31:34.802Z,20.13
2023-07-08T22:34:03.784Z,20.26
2023-07-08T22:36:30.874Z,19.78
2023-07-08T22:39:00.775Z,20.02
2023-07-08T22:41:29.148Z,19.82
2023-07-08T22:43:56.341Z,20.13
2023-07-08T22:46:23.489Z,19.92
2023-07-08T22:48:58.452Z,19.49
2023-07-08T22:51:27.723Z,19.86
2023-07-08T22:53:57.302Z,19.59
2023-07-08T22:56:24.412Z,19.60
2023-07-08T22:58:51.444Z,19.47
2023-07-08T23:01:18.456Z,19.41
2023-07-08T23:03:45.535Z,19.41
2023-07-08T23:06:16.570Z,19.09
2023-07-08T23:08:43.729Z,19.39
2023-07-08T23:11:14.036Z,19.32
2023-07-08T23:13:43.964Z,18.75
2023-07-08T23:16:16.982Z,19.32
2023-07-08T23:18:47.782Z,19.28
2023-07-08T23:21:17.163Z,18.88
2023-07-08T23:23:44.199Z,19.15
2023-07-08T23:26:14.472Z,19.12
2023-07-08T23:28:41.993Z,19.03
2023-07-08T23:31:11.371Z,18.74
2023-07-08T23:33:38.438Z,18.88
2023-07-08T23:36:22.388Z,19.03
2023-07-08T23:38:50.344Z,18.58
2023-07-08T23:41:18.956Z,18.83
2023-07-08T23:43:46.923Z,18.83
2023-07-08T23:46:23.163Z,18.81
2023-07-08T23:48:51.563Z,18.79
2023-07-08T23:51:18.765Z,18.80
2023-07-08T23:53:45.896Z,18.55
2023-07-08T23:56:15.152Z,18.74
2023-07-08T23:58:43.753Z,18.74
